sensor_id;sensor_type;location;lat;lon;timestamp;pressure;altitude;pressure_sealevel;temperature;humidity
48364;BME280;34170;54.364;18.582;2023-07-24T00:02:05;99353.19;;;16.81;100.00
48364;BME280;34170;54.364;18.582;2023-07-24T00:04:32;99345.28;;;16.86;100.00
48364;BME280;34170;54.364;18.582;2023-07-24T00:07:00;99330.44;;;16.75;100.00
48364;BME280;34170;54.364;18.582;2023-07-24T00:09:28;99331.47;;;16.81;100.00
48364;BME280;34170;54.364;18.582;2023-07-24T00:11:56;99315.84;;;16.89;100.00
48364;BME280;34170;54.364;18.582;2023-07-24T00:14:23;99336.09;;;16.93;100.00
48364;BME280;34170;54.364;18.582;2023-07-24T00:16:51;99321.91;;;16.85;100.00
48364;BME280;34170;54.364;18.582;2023-07-24T00:19:18;99336.31;;;16.85;100.00
48364;BME280;34170;54.364;18.582;2023-07-24T00:21:46;99322.91;;;16.77;100.00
48364;BME280;34170;54.364;18.582;2023-07-24T00:24:14;99338.59;;;17.02;100.00
48364;BME280;34170;54.364;18.582;2023-07-24T00:26:41;99337.53;;;17.16;100.00
48364;BME280;34170;54.364;18.582;2023-07-24T00:29:08;99317.50;;;17.04;100.00
48364;BME280;34170;54.364;18.582;2023-07-24T00:31:36;99325.22;;;16.93;100.00
48364;BME280;34170;54.364;18.582;2023-07-24T00:34:03;99333.16;;;17.02;100.00
48364;BME280;34170;54.364;18.582;2023-07-24T00:36:32;99338.19;;;16.91;100.00
48364;BME280;34170;54.364;18.582;2023-07-24T00:39:00;99342.34;;;17.14;100.00
48364;BME280;34170;54.364;18.582;2023-07-24T00:41:30;99324.38;;;17.13;100.00
48364;BME280;34170;54.364;18.582;2023-07-24T00:43:57;99305.59;;;17.05;100.00
48364;BME280;34170;54.364;18.582;2023-07-24T00:46:25;99317.47;;;17.17;100.00
48364;BME280;34170;54.364;18.582;2023-07-24T00:48:53;99326.50;;;16.98;100.00
48364;BME280;34170;54.364;18.582;2023-07-24T00:51:21;99322.50;;;17.07;100.00
48364;BME280;34170;54.364;18.582;2023-07-24T00:53:50;99321.88;;;17.05;100.00
48364;BME280;34170;54.364;18.582;2023-07-24T00:56:17;99325.22;;;17.07;100.00
48364;BME280;34170;54.364;18.582;2023-07-24T00:58:46;99312.69;;;17.06;100.00
48364;BME280;34170;54.364;18.582;2023-07-24T01:01:16;99306.22;;;16.93;100.00
48364;BME280;34170;54.364;18.582;2023-07-24T01:03:45;99311.88;;;16.85;100.00
48364;BME280;34170;54.364;18.582;2023-07-24T01:06:12;99314.78;;;16.64;100.00
48364;BME280;34170;54.364;18.582;2023-07-24T01:08:40;99317.91;;;16.61;100.00
48364;BME280;34170;54.364;18.582;2023-07-24T01:11:24;99314.34;;;16.60;100.00
48364;BME280;34170;54.364;18.582;2023-07-24T01:14:12;99309.75;;;16.54;100.00
48364;BME280;34170;54.364;18.582;2023-07-24T01:16:43;99305.97;;;16.42;100.00
48364;BME280;34170;54.364;18.582;2023-07-24T01:19:38;99285.72;;;16.31;100.00
48364;BME280;34170;54.364;18.582;2023-07-24T01:27:28;99301.00;;;16.65;100.00
48364;BME280;34170;54.364;18.582;2023-07-24T01:29:55;99285.53;;;16.52;100.00
48364;BME280;34170;54.364;18.582;2023-07-24T01:32:23;99296.38;;;16.59;100.00
48364;BME280;34170;54.364;18.582;2023-07-24T01:34:51;99298.47;;;16.50;100.00
48364;BME280;34170;54.364;18.582;2023-07-24T01:37:20;99280.72;;;16.41;100.00
48364;BME280;34170;54.364;18.582;2023-07-24T01:39:49;99271.13;;;16.45;100.00
48364;BME280;34170;54.364;18.582;2023-07-24T01:42:17;99265.50;;;16.53;100.00
48364;BME280;34170;54.364;18.582;2023-07-24T01:44:51;99266.94;;;16.56;100.00
48364;BME280;34170;54.364;18.582;2023-07-24T01:47:19;99278.88;;;16.62;100.00
48364;BME280;34170;54.364;18.582;2023-07-24T01:49:48;99277.19;;;16.67;100.00
48364;BME280;34170;54.364;18.582;2023-07-24T01:52:15;99279.91;;;16.61;100.00
48364;BME280;34170;54.364;18.582;2023-07-24T01:54:43;99271.34;;;16.57;100.00
48364;BME280;34170;54.364;18.582;2023-07-24T01:57:10;99272.16;;;16.31;100.00
48364;BME280;34170;54.364;18.582;2023-07-24T01:59:38;99259.25;;;16.33;100.00
48364;BME280;34170;54.364;18.582;2023-07-24T02:02:05;99262.16;;;16.25;100.00
48364;BME280;34170;54.364;18.582;2023-07-24T02:04:33;99278.41;;;16.18;100.00
48364;BME280;34170;54.364;18.582;2023-07-24T02:07:00;99264.63;;;16.19;100.00
48364;BME280;34170;54.364;18.582;2023-07-24T02:09:28;99268.41;;;16.12;100.00
48364;BME280;34170;54.364;18.582;2023-07-24T02:11:55;99257.13;;;16.15;100.00
48364;BME280;34170;54.364;18.582;2023-07-24T02:14:23;99270.28;;;16.18;100.00
48364;BME280;34170;54.364;18.582;2023-07-24T02:16:51;99271.09;;;16.18;100.00
48364;BME280;34170;54.364;18.582;2023-07-24T02:19:19;99257.13;;;16.08;100.00
48364;BME280;34170;54.364;18.582;2023-07-24T02:21:46;99256.31;;;16.28;100.00
48364;BME280;34170;54.364;18.582;2023-07-24T02:24:14;99266.31;;;16.34;100.00
48364;BME280;34170;54.364;18.582;2023-07-24T02:26:41;99265.50;;;16.33;100.00
48364;BME280;34170;54.364;18.582;2023-07-24T02:29:09;99255.25;;;16.29;100.00
48364;BME280;34170;54.364;18.582;2023-07-24T02:31:36;99260.91;;;16.41;100.00
48364;BME280;34170;54.364;18.582;2023-07-24T02:34:04;99249.63;;;16.37;100.00
48364;BME280;34170;54.364;18.582;2023-07-24T02:36:32;99267.59;;;16.51;100.00
48364;BME280;34170;54.364;18.582;2023-07-24T02:38:59;99250.47;;;16.51;100.00
48364;BME280;34170;54.364;18.582;2023-07-24T02:41:27;99250.88;;;16.41;100.00
48364;BME280;34170;54.364;18.582;2023-07-24T02:43:54;99260.50;;;16.37;100.00
48364;BME280;34170;54.364;18.582;2023-07-24T02:46:22;99249.41;;;16.25;100.00
48364;BME280;34170;54.364;18.582;2023-07-24T02:48:53;99255.47;;;16.34;100.00
48364;BME280;34170;54.364;18.582;2023-07-24T02:51:21;99256.53;;;16.33;100.00
48364;BME280;34170;54.364;18.582;2023-07-24T02:53:48;99227.50;;;16.07;100.00
48364;BME280;34170;54.364;18.582;2023-07-24T02:56:19;99243.16;;;16.38;100.00
48364;BME280;34170;54.364;18.582;2023-07-24T02:58:47;99242.09;;;16.52;100.00
48364;BME280;34170;54.364;18.582;2023-07-24T03:01:15;99247.94;;;16.56;100.00
48364;BME280;34170;54.364;18.582;2023-07-24T03:03:43;99261.72;;;16.61;100.00
48364;BME280;34170;54.364;18.582;2023-07-24T03:06:10;99262.56;;;16.75;100.00
48364;BME280;34170;54.364;18.582;2023-07-24T03:08:38;99258.00;;;16.89;100.00
48364;BME280;34170;54.364;18.582;2023-07-24T03:11:05;99260.47;;;16.97;100.00
48364;BME280;34170;54.364;18.582;2023-07-24T03:13:33;99265.28;;;16.95;100.00
48364;BME280;34170;54.364;18.582;2023-07-24T03:16:01;99266.94;;;17.03;100.00
48364;BME280;34170;54.364;18.582;2023-07-24T03:18:28;99257.31;;;17.07;100.00
48364;BME280;34170;54.364;18.582;2023-07-24T03:20:58;99273.41;;;17.08;100.00
48364;BME280;34170;54.364;18.582;2023-07-24T03:23:26;99272.13;;;17.11;100.00
48364;BME280;34170;54.364;18.582;2023-07-24T03:25:54;99255.03;;;17.04;100.00
48364;BME280;34170;54.364;18.582;2023-07-24T03:28:21;99243.31;;;17.10;100.00
48364;BME280;34170;54.364;18.582;2023-07-24T03:30:50;99249.19;;;17.00;100.00
48364;BME280;34170;54.364;18.582;2023-07-24T03:33:17;99246.88;;;16.97;100.00
48364;BME280;34170;54.364;18.582;2023-07-24T03:35:45;99241.44;;;17.04;100.00
48364;BME280;34170;54.364;18.582;2023-07-24T03:38:12;99252.28;;;17.17;100.00
48364;BME280;34170;54.364;18.582;2023-07-24T03:40:39;99248.31;;;17.13;100.00
48364;BME280;34170;54.364;18.582;2023-07-24T03:43:07;99260.59;;;17.22;100.00
48364;BME280;34170;54.364;18.582;2023-07-24T03:45:34;99237.03;;;17.09;100.00
48364;BME280;34170;54.364;18.582;2023-07-24T03:48:02;99265.47;;;17.13;100.00
48364;BME280;34170;54.364;18.582;2023-07-24T03:50:30;99254.34;;;17.28;100.00
48364;BME280;34170;54.364;18.582;2023-07-24T03:52:57;99249.28;;;17.39;100.00
48364;BME280;34170;54.364;18.582;2023-07-24T03:55:25;99253.16;;;17.56;100.00
48364;BME280;34170;54.364;18.582;2023-07-24T03:57:52;99252.41;;;17.81;100.00
48364;BME280;34170;54.364;18.582;2023-07-24T04:00:20;99259.75;;;17.87;100.00
48364;BME280;34170;54.364;18.582;2023-07-24T04:02:47;99258.84;;;18.00;100.00
48364;BME280;34170;54.364;18.582;2023-07-24T04:05:15;99259.59;;;18.14;100.00
48364;BME280;34170;54.364;18.582;2023-07-24T04:07:43;99259.84;;;18.37;100.00
48364;BME280;34170;54.364;18.582;2023-07-24T04:10:10;99257.94;;;18.88;100.00
48364;BME280;34170;54.364;18.582;2023-07-24T04:12:38;99252.84;;;19.35;100.00
48364;BME280;34170;54.364;18.582;2023-07-24T04:15:06;99253.50;;;19.31;100.00
48364;BME280;34170;54.364;18.582;2023-07-24T04:17:33;99253.66;;;19.36;100.00
48364;BME280;34170;54.364;18.582;2023-07-24T04:20:03;99240.94;;;19.30;100.00
48364;BME280;34170;54.364;18.582;2023-07-24T04:22:31;99240.66;;;19.19;100.00
48364;BME280;34170;54.364;18.582;2023-07-24T04:24:58;99248.06;;;19.31;100.00
48364;BME280;34170;54.364;18.582;2023-07-24T04:27:26;99258.22;;;19.23;100.00
48364;BME280;34170;54.364;18.582;2023-07-24T04:29:53;99259.88;;;19.43;100.00
48364;BME280;34170;54.364;18.582;2023-07-24T04:32:20;99262.34;;;19.63;100.00
48364;BME280;34170;54.364;18.582;2023-07-24T04:34:48;99243.41;;;19.68;100.00
48364;BME280;34170;54.364;18.582;2023-07-24T04:37:15;99250.09;;;20.03;98.86
48364;BME280;34170;54.364;18.582;2023-07-24T04:39:43;99240.81;;;20.46;94.84
48364;BME280;34170;54.364;18.582;2023-07-24T04:42:10;99248.09;;;20.99;91.06
48364;BME280;34170;54.364;18.582;2023-07-24T04:44:38;99257.81;;;21.30;90.00
48364;BME280;34170;54.364;18.582;2023-07-24T04:47:05;99254.34;;;21.87;88.20
48364;BME280;34170;54.364;18.582;2023-07-24T04:49:33;99259.91;;;22.21;85.28
48364;BME280;34170;54.364;18.582;2023-07-24T04:52:00;99244.66;;;22.42;82.41
48364;BME280;34170;54.364;18.582;2023-07-24T04:54:28;99239.25;;;22.48;80.79
48364;BME280;34170;54.364;18.582;2023-07-24T04:56:55;99227.63;;;22.91;78.19
48364;BME280;34170;54.364;18.582;2023-07-24T04:59:23;99237.63;;;23.41;75.62
48364;BME280;34170;54.364;18.582;2023-07-24T05:01:51;99248.63;;;23.41;75.73
48364;BME280;34170;54.364;18.582;2023-07-24T05:04:18;99242.28;;;24.12;69.52
48364;BME280;34170;54.364;18.582;2023-07-24T05:06:46;99236.22;;;24.10;70.29
48364;BME280;34170;54.364;18.582;2023-07-24T05:09:13;99251.97;;;24.20;69.16
48364;BME280;34170;54.364;18.582;2023-07-24T05:11:41;99239.53;;;24.40;67.41
48364;BME280;34170;54.364;18.582;2023-07-24T05:14:12;99263.28;;;24.24;68.19
48364;BME280;34170;54.364;18.582;2023-07-24T05:16:39;99265.81;;;23.59;70.95
48364;BME280;34170;54.364;18.582;2023-07-24T05:19:07;99273.41;;;22.74;76.40
48364;BME280;34170;54.364;18.582;2023-07-24T05:21:34;99262.34;;;22.52;77.44
48364;BME280;34170;54.364;18.582;2023-07-24T05:24:02;99273.38;;;22.40;80.09
48364;BME280;34170;54.364;18.582;2023-07-24T05:26:29;99251.97;;;22.08;80.87
48364;BME280;34170;54.364;18.582;2023-07-24T05:28:57;99263.75;;;21.80;84.06
48364;BME280;34170;54.364;18.582;2023-07-24T05:31:25;99242.31;;;21.60;85.67
48364;BME280;34170;54.364;18.582;2023-07-24T05:33:52;99262.94;;;21.79;82.99
48364;BME280;34170;54.364;18.582;2023-07-24T05:36:20;99259.31;;;21.90;82.47
48364;BME280;34170;54.364;18.582;2023-07-24T05:38:47;99262.16;;;21.96;81.86
48364;BME280;34170;54.364;18.582;2023-07-24T05:41:15;99256.41;;;21.80;84.34
48364;BME280;34170;54.364;18.582;2023-07-24T05:43:42;99253.22;;;21.72;82.90
48364;BME280;34170;54.364;18.582;2023-07-24T05:46:10;99246.91;;;21.71;83.35
48364;BME280;34170;54.364;18.582;2023-07-24T05:48:37;99264.97;;;22.01;83.68
48364;BME280;34170;54.364;18.582;2023-07-24T05:51:05;99273.44;;;21.99;82.80
48364;BME280;34170;54.364;18.582;2023-07-24T05:53:33;99254.25;;;21.82;84.02
48364;BME280;34170;54.364;18.582;2023-07-24T05:56:01;99265.56;;;21.74;85.24
48364;BME280;34170;54.364;18.582;2023-07-24T05:58:29;99268.84;;;21.47;87.16
48364;BME280;34170;54.364;18.582;2023-07-24T06:00:57;99262.31;;;21.48;88.05
48364;BME280;34170;54.364;18.582;2023-07-24T06:03:24;99267.50;;;21.62;87.41
48364;BME280;34170;54.364;18.582;2023-07-24T06:05:53;99261.41;;;22.46;85.21
48364;BME280;34170;54.364;18.582;2023-07-24T06:08:22;99256.84;;;23.41;75.57
48364;BME280;34170;54.364;18.582;2023-07-24T06:10:50;99252.78;;;23.05;77.54
48364;BME280;34170;54.364;18.582;2023-07-24T06:13:18;99239.22;;;23.15;75.77
48364;BME280;34170;54.364;18.582;2023-07-24T06:15:50;99249.63;;;23.35;77.77
48364;BME280;34170;54.364;18.582;2023-07-24T06:18:18;99243.69;;;23.88;72.79
48364;BME280;34170;54.364;18.582;2023-07-24T06:20:45;99254.88;;;25.58;65.92
48364;BME280;34170;54.364;18.582;2023-07-24T06:23:13;99256.28;;;25.71;62.02
48364;BME280;34170;54.364;18.582;2023-07-24T06:25:40;99250.44;;;25.47;63.11
48364;BME280;34170;54.364;18.582;2023-07-24T06:28:08;99242.69;;;24.96;63.45
48364;BME280;34170;54.364;18.582;2023-07-24T06:30:35;99261.50;;;25.67;59.77
48364;BME280;34170;54.364;18.582;2023-07-24T06:33:02;99263.94;;;28.69;50.92
48364;BME280;34170;54.364;18.582;2023-07-24T06:35:30;99247.69;;;32.62;38.38
48364;BME280;34170;54.364;18.582;2023-07-24T06:37:58;99255.19;;;36.98;31.85
48364;BME280;34170;54.364;18.582;2023-07-24T06:40:25;99266.50;;;37.72;28.27
48364;BME280;34170;54.364;18.582;2023-07-24T06:42:53;99260.28;;;40.19;24.40
48364;BME280;34170;54.364;18.582;2023-07-24T06:45:20;99266.94;;;41.12;23.74
48364;BME280;34170;54.364;18.582;2023-07-24T06:47:48;99251.69;;;40.74;23.11
48364;BME280;34170;54.364;18.582;2023-07-24T06:50:15;99249.56;;;39.74;23.98
48364;BME280;34170;54.364;18.582;2023-07-24T06:52:43;99260.72;;;41.76;22.09
48364;BME280;34170;54.364;18.582;2023-07-24T06:55:10;99243.88;;;40.25;23.48
48364;BME280;34170;54.364;18.582;2023-07-24T06:57:38;99258.56;;;36.58;26.87
48364;BME280;34170;54.364;18.582;2023-07-24T07:00:06;99247.16;;;32.01;33.48
48364;BME280;34170;54.364;18.582;2023-07-24T07:02:36;99259.34;;;31.08;35.71
48364;BME280;34170;54.364;18.582;2023-07-24T07:05:04;99249.78;;;28.70;40.12
48364;BME280;34170;54.364;18.582;2023-07-24T07:07:32;99238.22;;;27.79;43.24
48364;BME280;34170;54.364;18.582;2023-07-24T07:09:59;99246.78;;;27.02;45.91
48364;BME280;34170;54.364;18.582;2023-07-24T07:12:27;99226.41;;;26.57;48.27
48364;BME280;34170;54.364;18.582;2023-07-24T07:14:54;99242.94;;;26.57;49.09
48364;BME280;34170;54.364;18.582;2023-07-24T07:17:22;99246.53;;;26.27;52.90
48364;BME280;34170;54.364;18.582;2023-07-24T07:19:49;99246.78;;;27.02;51.14
48364;BME280;34170;54.364;18.582;2023-07-24T07:22:16;99240.44;;;27.07;49.50
48364;BME280;34170;54.364;18.582;2023-07-24T07:24:44;99245.69;;;26.93;49.59
48364;BME280;34170;54.364;18.582;2023-07-24T07:27:13;99228.75;;;27.46;47.85
48364;BME280;34170;54.364;18.582;2023-07-24T07:29:44;99220.47;;;28.99;42.92
48364;BME280;34170;54.364;18.582;2023-07-24T07:32:11;99241.44;;;28.41;43.69
48364;BME280;34170;54.364;18.582;2023-07-24T07:34:39;99226.41;;;26.88;46.86
48364;BME280;34170;54.364;18.582;2023-07-24T07:37:06;99223.94;;;26.35;49.59
48364;BME280;34170;54.364;18.582;2023-07-24T07:39:34;99218.16;;;26.62;48.67
48364;BME280;34170;54.364;18.582;2023-07-24T07:42:01;99211.53;;;26.58;49.63
48364;BME280;34170;54.364;18.582;2023-07-24T07:44:44;99230.00;;;26.83;49.36
48364;BME280;34170;54.364;18.582;2023-07-24T07:47:12;99226.44;;;26.31;50.47
48364;BME280;34170;54.364;18.582;2023-07-24T07:49:39;99222.09;;;25.52;54.65
48364;BME280;34170;54.364;18.582;2023-07-24T07:52:07;99220.06;;;26.05;52.69
48364;BME280;34170;54.364;18.582;2023-07-24T07:54:35;99207.59;;;25.82;52.41
48364;BME280;34170;54.364;18.582;2023-07-24T07:57:04;99218.03;;;25.75;53.49
48364;BME280;34170;54.364;18.582;2023-07-24T07:59:31;99217.88;;;26.28;52.74
48364;BME280;34170;54.364;18.582;2023-07-24T08:01:59;99204.72;;;27.46;48.46
48364;BME280;34170;54.364;18.582;2023-07-24T08:04:26;99215.22;;;30.92;40.42
48364;BME280;34170;54.364;18.582;2023-07-24T08:06:54;99220.47;;;33.61;33.78
48364;BME280;34170;54.364;18.582;2023-07-24T08:09:21;99212.31;;;34.61;32.23
48364;BME280;34170;54.364;18.582;2023-07-24T08:11:51;99217.63;;;30.14;37.62
48364;BME280;34170;54.364;18.582;2023-07-24T08:14:18;99205.81;;;28.98;41.52
48364;BME280;34170;54.364;18.582;2023-07-24T08:16:50;99197.63;;;27.30;46.01
48364;BME280;34170;54.364;18.582;2023-07-24T08:19:17;99213.19;;;26.79;47.94
48364;BME280;34170;54.364;18.582;2023-07-24T08:21:46;99190.59;;;26.16;49.59
48364;BME280;34170;54.364;18.582;2023-07-24T08:24:14;99197.47;;;26.85;48.74
48364;BME280;34170;54.364;18.582;2023-07-24T08:26:41;99186.81;;;28.62;42.76
48364;BME280;34170;54.364;18.582;2023-07-24T08:29:09;99171.94;;;28.19;43.42
48364;BME280;34170;54.364;18.582;2023-07-24T08:31:36;99187.66;;;29.11;41.67
48364;BME280;34170;54.364;18.582;2023-07-24T08:34:04;99195.41;;;27.82;44.45
48364;BME280;34170;54.364;18.582;2023-07-24T08:36:32;99187.81;;;26.52;49.00
48364;BME280;34170;54.364;18.582;2023-07-24T08:38:59;99192.22;;;26.73;48.25
48364;BME280;34170;54.364;18.582;2023-07-24T08:41:27;99188.31;;;26.95;47.49
48364;BME280;34170;54.364;18.582;2023-07-24T08:43:54;99160.38;;;25.32;51.59
48364;BME280;34170;54.364;18.582;2023-07-24T08:46:22;99177.06;;;26.60;49.94
48364;BME280;34170;54.364;18.582;2023-07-24T08:48:49;99175.06;;;26.97;47.00
48364;BME280;34170;54.364;18.582;2023-07-24T08:51:18;99171.84;;;28.00;44.80
48364;BME280;34170;54.364;18.582;2023-07-24T08:53:51;99154.03;;;29.85;39.85
48364;BME280;34170;54.364;18.582;2023-07-24T08:56:20;99162.88;;;30.86;37.46
48364;BME280;34170;54.364;18.582;2023-07-24T08:58:47;99153.88;;;32.08;35.71
48364;BME280;34170;54.364;18.582;2023-07-24T09:01:15;99160.41;;;31.90;35.27
48364;BME280;34170;54.364;18.582;2023-07-24T09:03:42;99139.47;;;31.06;36.30
48364;BME280;34170;54.364;18.582;2023-07-24T09:06:10;99145.19;;;30.68;37.39
48364;BME280;34170;54.364;18.582;2023-07-24T09:08:40;99132.03;;;30.59;36.73
48364;BME280;34170;54.364;18.582;2023-07-24T09:11:09;99140.34;;;30.27;38.13
48364;BME280;34170;54.364;18.582;2023-07-24T09:13:40;99141.94;;;31.21;37.31
48364;BME280;34170;54.364;18.582;2023-07-24T09:16:20;99144.78;;;31.30;35.62
48364;BME280;34170;54.364;18.582;2023-07-24T09:18:48;99130.25;;;31.83;34.12
48364;BME280;34170;54.364;18.582;2023-07-24T09:21:35;99136.38;;;32.30;34.27
48364;BME280;34170;54.364;18.582;2023-07-24T09:24:10;99115.69;;;32.85;32.60
48364;BME280;34170;54.364;18.582;2023-07-24T09:26:52;99116.97;;;32.17;34.06
48364;BME280;34170;54.364;18.582;2023-07-24T09:29:30;99136.97;;;32.81;33.07
48364;BME280;34170;54.364;18.582;2023-07-24T09:31:59;99134.59;;;30.70;35.89
48364;BME280;34170;54.364;18.582;2023-07-24T09:34:27;99129.06;;;31.76;35.18
48364;BME280;34170;54.364;18.582;2023-07-24T09:36:54;99132.88;;;32.02;34.33
48364;BME280;34170;54.364;18.582;2023-07-24T09:39:26;99118.97;;;30.60;36.21
48364;BME280;34170;54.364;18.582;2023-07-24T09:42:05;99133.44;;;30.43;36.38
48364;BME280;34170;54.364;18.582;2023-07-24T09:44:33;99124.16;;;30.94;36.50
48364;BME280;34170;54.364;18.582;2023-07-24T09:47:01;99123.59;;;32.07;34.85
48364;BME280;34170;54.364;18.582;2023-07-24T09:49:50;99117.50;;;33.48;33.01
48364;BME280;34170;54.364;18.582;2023-07-24T09:52:19;99112.25;;;33.55;32.17
48364;BME280;34170;54.364;18.582;2023-07-24T09:57:21;99107.00;;;32.47;33.50
48364;BME280;34170;54.364;18.582;2023-07-24T09:59:49;99115.34;;;31.43;35.91
48364;BME280;34170;54.364;18.582;2023-07-24T10:02:19;99094.88;;;28.17;41.94
48364;BME280;34170;54.364;18.582;2023-07-24T10:04:47;99103.25;;;27.28;43.97
48364;BME280;34170;54.364;18.582;2023-07-24T10:07:15;99095.75;;;27.78;43.05
48364;BME280;34170;54.364;18.582;2023-07-24T10:09:43;99083.22;;;28.49;42.47
48364;BME280;34170;54.364;18.582;2023-07-24T10:12:11;99077.69;;;28.20;41.87
48364;BME280;34170;54.364;18.582;2023-07-24T10:14:39;99073.97;;;27.71;42.61
48364;BME280;34170;54.364;18.582;2023-07-24T10:17:06;99084.22;;;27.21;45.33
48364;BME280;34170;54.364;18.582;2023-07-24T10:19:43;99049.34;;;28.39;42.26
48364;BME280;34170;54.364;18.582;2023-07-24T10:22:20;99061.53;;;30.00;38.65
48364;BME280;34170;54.364;18.582;2023-07-24T10:24:50;99069.47;;;28.44;40.78
48364;BME280;34170;54.364;18.582;2023-07-24T10:27:23;99067.50;;;27.47;43.07
48364;BME280;34170;54.364;18.582;2023-07-24T10:30:01;99053.22;;;28.38;42.51
48364;BME280;34170;54.364;18.582;2023-07-24T10:32:47;99052.97;;;28.34;42.75
48364;BME280;34170;54.364;18.582;2023-07-24T10:35:22;99058.38;;;29.17;41.75
48364;BME280;34170;54.364;18.582;2023-07-24T10:37:59;99062.38;;;28.62;41.51
48364;BME280;34170;54.364;18.582;2023-07-24T10:40:27;99051.13;;;29.92;40.39
48364;BME280;34170;54.364;18.582;2023-07-24T10:43:06;99031.91;;;28.86;41.72
48364;BME280;34170;54.364;18.582;2023-07-24T10:45:48;99043.16;;;30.04;39.85
48364;BME280;34170;54.364;18.582;2023-07-24T10:48:17;99041.53;;;30.17;39.44
48364;BME280;34170;54.364;18.582;2023-07-24T10:50:46;99045.25;;;31.60;36.15
48364;BME280;34170;54.364;18.582;2023-07-24T10:53:20;99028.31;;;30.28;38.54
48364;BME280;34170;54.364;18.582;2023-07-24T10:55:49;99043.53;;;31.13;37.82
48364;BME280;34170;54.364;18.582;2023-07-24T10:58:20;99026.22;;;31.30;37.09
48364;BME280;34170;54.364;18.582;2023-07-24T11:00:51;99040.00;;;31.22;37.08
48364;BME280;34170;54.364;18.582;2023-07-24T11:03:19;99029.88;;;30.89;37.37
48364;BME280;34170;54.364;18.582;2023-07-24T11:05:47;99021.75;;;31.07;37.36
48364;BME280;34170;54.364;18.582;2023-07-24T11:08:19;99032.94;;;31.74;36.69
48364;BME280;34170;54.364;18.582;2023-07-24T11:10:51;99038.41;;;31.07;37.98
48364;BME280;34170;54.364;18.582;2023-07-24T11:13:24;99030.69;;;30.90;37.66
48364;BME280;34170;54.364;18.582;2023-07-24T11:15:53;99011.94;;;30.45;38.56
48364;BME280;34170;54.364;18.582;2023-07-24T11:18:21;99014.97;;;30.30;39.23
48364;BME280;34170;54.364;18.582;2023-07-24T11:20:52;99030.72;;;28.20;42.31
48364;BME280;34170;54.364;18.582;2023-07-24T11:23:20;99007.63;;;28.35;43.74
48364;BME280;34170;54.364;18.582;2023-07-24T11:25:52;99024.22;;;27.76;45.49
48364;BME280;34170;54.364;18.582;2023-07-24T11:28:20;99020.31;;;27.48;45.41
48364;BME280;34170;54.364;18.582;2023-07-24T11:30:48;99014.00;;;26.93;47.82
48364;BME280;34170;54.364;18.582;2023-07-24T11:33:17;99014.06;;;26.77;46.44
48364;BME280;34170;54.364;18.582;2023-07-24T11:35:45;99010.94;;;26.99;47.07
48364;BME280;34170;54.364;18.582;2023-07-24T11:38:13;99018.44;;;27.38;46.56
48364;BME280;34170;54.364;18.582;2023-07-24T11:40:43;99000.47;;;28.10;44.79
48364;BME280;34170;54.364;18.582;2023-07-24T11:43:18;99013.16;;;28.83;44.01
48364;BME280;34170;54.364;18.582;2023-07-24T11:45:47;99016.22;;;28.33;44.00
48364;BME280;34170;54.364;18.582;2023-07-24T11:48:22;99013.31;;;27.95;44.48
48364;BME280;34170;54.364;18.582;2023-07-24T11:50:53;99025.09;;;28.30;44.72
48364;BME280;34170;54.364;18.582;2023-07-24T11:53:27;99018.00;;;27.90;45.07
48364;BME280;34170;54.364;18.582;2023-07-24T11:55:56;99015.56;;;27.09;47.79
48364;BME280;34170;54.364;18.582;2023-07-24T11:58:30;99022.19;;;27.13;48.86
48364;BME280;34170;54.364;18.582;2023-07-24T12:00:57;98998.38;;;27.23;48.02
48364;BME280;34170;54.364;18.582;2023-07-24T12:03:26;99014.56;;;27.74;47.33
48364;BME280;34170;54.364;18.582;2023-07-24T12:05:55;99015.75;;;27.63;47.05
48364;BME280;34170;54.364;18.582;2023-07-24T12:08:31;99011.38;;;27.96;46.61
48364;BME280;34170;54.364;18.582;2023-07-24T12:11:00;98998.38;;;27.97;46.78
48364;BME280;34170;54.364;18.582;2023-07-24T12:13:27;98989.47;;;27.36;48.28
48364;BME280;34170;54.364;18.582;2023-07-24T12:15:56;98997.94;;;27.05;48.51
48364;BME280;34170;54.364;18.582;2023-07-24T12:18:24;98994.03;;;27.11;48.24
48364;BME280;34170;54.364;18.582;2023-07-24T12:20:51;98989.81;;;27.24;48.18
48364;BME280;34170;54.364;18.582;2023-07-24T12:23:19;98996.16;;;27.30;48.17
48364;BME280;34170;54.364;18.582;2023-07-24T12:25:47;98989.56;;;27.94;47.45
48364;BME280;34170;54.364;18.582;2023-07-24T12:28:15;98996.47;;;27.57;45.79
48364;BME280;34170;54.364;18.582;2023-07-24T12:30:42;98988.56;;;27.80;46.27
48364;BME280;34170;54.364;18.582;2023-07-24T12:33:10;98989.03;;;27.92;46.10
48364;BME280;34170;54.364;18.582;2023-07-24T12:35:37;98994.22;;;27.65;46.02
48364;BME280;34170;54.364;18.582;2023-07-24T12:38:05;98991.34;;;27.46;45.49
48364;BME280;34170;54.364;18.582;2023-07-24T12:40:32;98979.00;;;27.33;45.55
48364;BME280;34170;54.364;18.582;2023-07-24T12:42:59;98982.56;;;27.38;46.36
48364;BME280;34170;54.364;18.582;2023-07-24T12:45:27;98978.84;;;27.53;46.00
48364;BME280;34170;54.364;18.582;2023-07-24T12:47:54;98985.88;;;27.70;44.78
48364;BME280;34170;54.364;18.582;2023-07-24T12:50:22;98987.59;;;27.66;45.20
48364;BME280;34170;54.364;18.582;2023-07-24T12:52:50;98985.25;;;27.78;45.19
48364;BME280;34170;54.364;18.582;2023-07-24T12:55:18;98967.13;;;28.01;45.51
48364;BME280;34170;54.364;18.582;2023-07-24T12:57:45;98970.50;;;27.93;44.39
48364;BME280;34170;54.364;18.582;2023-07-24T13:00:13;98962.44;;;27.97;43.69
48364;BME280;34170;54.364;18.582;2023-07-24T13:02:40;98945.00;;;28.01;44.59